sensor_id;sensor_type;location;lat;lon;timestamp;P1;durP1;ratioP1;P2;durP2;ratioP2
6638;SDS011;3355;52.882;8.430;2023-08-20T02:00:44;8.67;;;7.10;;
6638;SDS011;3355;52.882;8.430;2023-08-20T02:03:11;8.23;;;7.30;;
6638;SDS011;3355;52.882;8.430;2023-08-20T02:05:38;8.73;;;7.20;;
6638;SDS011;3355;52.882;8.430;2023-08-20T02:08:04;10.87;;;7.33;;
6638;SDS011;3355;52.882;8.430;2023-08-20T02:13:13;11.30;;;7.17;;
6638;SDS011;3355;52.882;8.430;2023-08-20T02:15:40;10.10;;;7.90;;
6638;SDS011;3355;52.882;8.430;2023-08-20T02:18:18;12.07;;;6.80;;
6638;SDS011;3355;52.882;8.430;2023-08-20T02:20:45;8.67;;;7.20;;
6638;SDS011;3355;52.882;8.430;2023-08-20T02:23:12;8.30;;;6.73;;
6638;SDS011;3355;52.882;8.430;2023-08-20T02:25:39;13.17;;;7.50;;
6638;SDS011;3355;52.882;8.430;2023-08-20T02:28:06;7.50;;;6.70;;
6638;SDS011;3355;52.882;8.430;2023-08-20T02:30:39;9.33;;;6.23;;
6638;SDS011;3355;52.882;8.430;2023-08-20T02:33:08;10.30;;;6.80;;
6638;SDS011;3355;52.882;8.430;2023-08-20T02:35:37;10.17;;;7.67;;
6638;SDS011;3355;52.882;8.430;2023-08-20T02:38:07;12.30;;;7.50;;
6638;SDS011;3355;52.882;8.430;2023-08-20T02:40:38;7.80;;;6.63;;
6638;SDS011;3355;52.882;8.430;2023-08-20T02:43:06;10.33;;;6.27;;
6638;SDS011;3355;52.882;8.430;2023-08-20T02:45:33;7.83;;;6.20;;
6638;SDS011;3355;52.882;8.430;2023-08-20T02:47:59;8.37;;;6.53;;
6638;SDS011;3355;52.882;8.430;2023-08-20T02:50:26;7.57;;;5.30;;
6638;SDS011;3355;52.882;8.430;2023-08-20T02:52:54;7.00;;;6.30;;
6638;SDS011;3355;52.882;8.430;2023-08-20T02:55:21;10.40;;;6.40;;
6638;SDS011;3355;52.882;8.430;2023-08-20T02:57:48;8.63;;;5.83;;
6638;SDS011;3355;52.882;8.430;2023-08-20T03:00:15;7.33;;;5.83;;
6638;SDS011;3355;52.882;8.430;2023-08-20T03:02:42;7.87;;;6.30;;
6638;SDS011;3355;52.882;8.430;2023-08-20T03:05:11;8.80;;;5.97;;
6638;SDS011;3355;52.882;8.430;2023-08-20T03:07:37;7.23;;;5.60;;
6638;SDS011;3355;52.882;8.430;2023-08-20T03:10:09;7.93;;;5.30;;
6638;SDS011;3355;52.882;8.430;2023-08-20T03:12:35;9.23;;;6.50;;
6638;SDS011;3355;52.882;8.430;2023-08-20T03:15:03;7.97;;;4.73;;
6638;SDS011;3355;52.882;8.430;2023-08-20T03:17:32;9.23;;;5.23;;
6638;SDS011;3355;52.882;8.430;2023-08-20T03:20:05;5.50;;;4.60;;
6638;SDS011;3355;52.882;8.430;2023-08-20T03:22:35;8.37;;;5.60;;
6638;SDS011;3355;52.882;8.430;2023-08-20T03:25:03;6.97;;;5.10;;
6638;SDS011;3355;52.882;8.430;2023-08-20T03:27:32;8.40;;;5.27;;
6638;SDS011;3355;52.882;8.430;2023-08-20T03:29:59;12.03;;;6.00;;
6638;SDS011;3355;52.882;8.430;2023-08-20T03:32:26;8.37;;;5.50;;
6638;SDS011;3355;52.882;8.430;2023-08-20T03:34:53;12.27;;;5.47;;
6638;SDS011;3355;52.882;8.430;2023-08-20T03:37:24;6.73;;;5.47;;
6638;SDS011;3355;52.882;8.430;2023-08-20T03:39:54;7.40;;;5.27;;
6638;SDS011;3355;52.882;8.430;2023-08-20T03:42:24;5.70;;;5.13;;
6638;SDS011;3355;52.882;8.430;2023-08-20T03:44:51;10.27;;;7.47;;
6638;SDS011;3355;52.882;8.430;2023-08-20T03:47:18;10.00;;;6.70;;
6638;SDS011;3355;52.882;8.430;2023-08-20T03:49:45;7.53;;;6.40;;
6638;SDS011;3355;52.882;8.430;2023-08-20T03:52:12;7.40;;;6.70;;
6638;SDS011;3355;52.882;8.430;2023-08-20T03:54:39;9.83;;;7.47;;
6638;SDS011;3355;52.882;8.430;2023-08-20T03:57:05;10.07;;;7.47;;
6638;SDS011;3355;52.882;8.430;2023-08-20T03:59:32;9.90;;;6.67;;
6638;SDS011;3355;52.882;8.430;2023-08-20T04:02:01;8.50;;;6.90;;
6638;SDS011;3355;52.882;8.430;2023-08-20T04:04:37;10.57;;;6.60;;
6638;SDS011;3355;52.882;8.430;2023-08-20T04:07:04;8.43;;;7.60;;
6638;SDS011;3355;52.882;8.430;2023-08-20T04:09:32;10.97;;;8.00;;
6638;SDS011;3355;52.882;8.430;2023-08-20T04:11:58;10.70;;;7.77;;
6638;SDS011;3355;52.882;8.430;2023-08-20T04:14:25;10.60;;;8.90;;
6638;SDS011;3355;52.882;8.430;2023-08-20T04:16:52;10.77;;;8.60;;
6638;SDS011;3355;52.882;8.430;2023-08-20T04:19:20;10.50;;;8.60;;
6638;SDS011;3355;52.882;8.430;2023-08-20T04:21:46;9.53;;;7.60;;
6638;SDS011;3355;52.882;8.430;2023-08-20T04:24:13;10.03;;;8.10;;
6638;SDS011;3355;52.882;8.430;2023-08-20T04:26:40;12.13;;;7.50;;
6638;SDS011;3355;52.882;8.430;2023-08-20T04:29:09;12.23;;;7.60;;
6638;SDS011;3355;52.882;8.430;2023-08-20T04:31:36;11.70;;;7.60;;
6638;SDS011;3355;52.882;8.430;2023-08-20T04:34:04;8.13;;;7.07;;
6638;SDS011;3355;52.882;8.430;2023-08-20T04:36:32;11.37;;;8.20;;
6638;SDS011;3355;52.882;8.430;2023-08-20T04:38:59;8.63;;;7.70;;
6638;SDS011;3355;52.882;8.430;2023-08-20T04:41:26;13.40;;;7.73;;
6638;SDS011;3355;52.882;8.430;2023-08-20T04:43:53;11.73;;;7.83;;
6638;SDS011;3355;52.882;8.430;2023-08-20T04:46:19;8.87;;;8.00;;
6638;SDS011;3355;52.882;8.430;2023-08-20T04:48:46;9.70;;;7.67;;
6638;SDS011;3355;52.882;8.430;2023-08-20T04:51:12;14.00;;;7.90;;
6638;SDS011;3355;52.882;8.430;2023-08-20T04:53:40;9.33;;;7.73;;
6638;SDS011;3355;52.882;8.430;2023-08-20T04:56:07;8.30;;;7.50;;
6638;SDS011;3355;52.882;8.430;2023-08-20T04:58:33;9.93;;;7.90;;
6638;SDS011;3355;52.882;8.430;2023-08-20T05:01:00;9.80;;;7.90;;
6638;SDS011;3355;52.882;8.430;2023-08-20T05:03:27;13.23;;;8.87;;
6638;SDS011;3355;52.882;8.430;2023-08-20T05:05:56;9.53;;;8.60;;
6638;SDS011;3355;52.882;8.430;2023-08-20T05:08:25;11.73;;;8.20;;
6638;SDS011;3355;52.882;8.430;2023-08-20T05:10:53;10.23;;;8.60;;
6638;SDS011;3355;52.882;8.430;2023-08-20T05:13:19;9.33;;;8.33;;
6638;SDS011;3355;52.882;8.430;2023-08-20T05:15:46;8.33;;;7.47;;
6638;SDS011;3355;52.882;8.430;2023-08-20T05:18:13;10.10;;;7.40;;
6638;SDS011;3355;52.882;8.430;2023-08-20T05:20:40;11.10;;;7.90;;
6638;SDS011;3355;52.882;8.430;2023-08-20T05:23:06;8.77;;;7.87;;
6638;SDS011;3355;52.882;8.430;2023-08-20T05:25:33;9.17;;;8.27;;
6638;SDS011;3355;52.882;8.430;2023-08-20T05:28:01;11.07;;;8.23;;
6638;SDS011;3355;52.882;8.430;2023-08-20T05:30:30;10.73;;;8.53;;
6638;SDS011;3355;52.882;8.430;2023-08-20T05:32:56;10.23;;;8.20;;
6638;SDS011;3355;52.882;8.430;2023-08-20T05:35:23;9.47;;;8.47;;
6638;SDS011;3355;52.882;8.430;2023-08-20T05:37:50;9.10;;;8.20;;
6638;SDS011;3355;52.882;8.430;2023-08-20T05:40:17;9.33;;;8.03;;
6638;SDS011;3355;52.882;8.430;2023-08-20T05:42:43;9.37;;;7.63;;
6638;SDS011;3355;52.882;8.430;2023-08-20T05:45:12;10.20;;;8.43;;
6638;SDS011;3355;52.882;8.430;2023-08-20T05:47:38;12.03;;;7.70;;
6638;SDS011;3355;52.882;8.430;2023-08-20T05:50:05;9.27;;;8.17;;
6638;SDS011;3355;52.882;8.430;2023-08-20T05:52:32;9.80;;;7.80;;
6638;SDS011;3355;52.882;8.430;2023-08-20T05:54:59;13.53;;;8.07;;
6638;SDS011;3355;52.882;8.430;2023-08-20T05:57:26;8.80;;;7.50;;
6638;SDS011;3355;52.882;8.430;2023-08-20T05:59:52;8.33;;;7.53;;
6638;SDS011;3355;52.882;8.430;2023-08-20T06:02:20;8.87;;;7.80;;
6638;SDS011;3355;52.882;8.430;2023-08-20T06:04:47;9.70;;;8.70;;
6638;SDS011;3355;52.882;8.430;2023-08-20T06:07:15;11.67;;;8.23;;
6638;SDS011;3355;52.882;8.430;2023-08-20T06:09:42;10.10;;;8.50;;
6638;SDS011;3355;52.882;8.430;2023-08-20T06:12:08;10.00;;;9.00;;
6638;SDS011;3355;52.882;8.430;2023-08-20T06:14:35;12.20;;;7.93;;
6638;SDS011;3355;52.882;8.430;2023-08-20T06:17:01;8.70;;;7.80;;
6638;SDS011;3355;52.882;8.430;2023-08-20T06:19:30;8.90;;;7.53;;
6638;SDS011;3355;52.882;8.430;2023-08-20T06:21:57;8.10;;;6.83;;
6638;SDS011;3355;52.882;8.430;2023-08-20T06:24:24;10.53;;;7.70;;
6638;SDS011;3355;52.882;8.430;2023-08-20T06:26:51;8.00;;;7.20;;
6638;SDS011;3355;52.882;8.430;2023-08-20T06:29:18;8.20;;;7.40;;
6638;SDS011;3355;52.882;8.430;2023-08-20T06:31:47;13.03;;;6.93;;
6638;SDS011;3355;52.882;8.430;2023-08-20T06:34:13;8.77;;;7.30;;
6638;SDS011;3355;52.882;8.430;2023-08-20T06:36:41;14.10;;;7.30;;
6638;SDS011;3355;52.882;8.430;2023-08-20T06:39:08;7.83;;;6.50;;
6638;SDS011;3355;52.882;8.430;2023-08-20T06:41:35;7.87;;;6.10;;
6638;SDS011;3355;52.882;8.430;2023-08-20T06:44:02;6.50;;;5.60;;
6638;SDS011;3355;52.882;8.430;2023-08-20T06:46:28;8.07;;;6.03;;
6638;SDS011;3355;52.882;8.430;2023-08-20T06:48:55;8.80;;;5.80;;
6638;SDS011;3355;52.882;8.430;2023-08-20T06:51:22;8.90;;;5.80;;
6638;SDS011;3355;52.882;8.430;2023-08-20T06:53:51;9.77;;;5.53;;
6638;SDS011;3355;52.882;8.430;2023-08-20T06:56:18;7.47;;;5.80;;
6638;SDS011;3355;52.882;8.430;2023-08-20T06:58:45;7.20;;;5.30;;
6638;SDS011;3355;52.882;8.430;2023-08-20T07:01:12;6.90;;;5.30;;
6638;SDS011;3355;52.882;8.430;2023-08-20T07:03:39;8.33;;;5.30;;
6638;SDS011;3355;52.882;8.430;2023-08-20T07:06:06;7.87;;;5.80;;
6638;SDS011;3355;52.882;8.430;2023-08-20T07:08:34;8.00;;;5.67;;
6638;SDS011;3355;52.882;8.430;2023-08-20T07:11:02;6.00;;;5.37;;
6638;SDS011;3355;52.882;8.430;2023-08-20T07:13:29;5.77;;;5.17;;
6638;SDS011;3355;52.882;8.430;2023-08-20T07:15:56;6.83;;;6.07;;
6638;SDS011;3355;52.882;8.430;2023-08-20T07:18:22;6.50;;;5.00;;
6638;SDS011;3355;52.882;8.430;2023-08-20T07:20:49;5.03;;;4.63;;
6638;SDS011;3355;52.882;8.430;2023-08-20T07:23:16;7.30;;;5.57;;
6638;SDS011;3355;52.882;8.430;2023-08-20T07:25:43;7.57;;;5.50;;
6638;SDS011;3355;52.882;8.430;2023-08-20T07:28:12;5.80;;;5.20;;
6638;SDS011;3355;52.882;8.430;2023-08-20T07:30:38;8.50;;;5.60;;
6638;SDS011;3355;52.882;8.430;2023-08-20T07:33:05;6.77;;;4.70;;
6638;SDS011;3355;52.882;8.430;2023-08-20T07:35:32;7.33;;;6.33;;
6638;SDS011;3355;52.882;8.430;2023-08-20T07:38:00;6.83;;;5.40;;
6638;SDS011;3355;52.882;8.430;2023-08-20T07:40:27;7.70;;;5.33;;
6638;SDS011;3355;52.882;8.430;2023-08-20T07:42:53;7.30;;;6.00;;
6638;SDS011;3355;52.882;8.430;2023-08-20T07:45:22;6.30;;;5.70;;
6638;SDS011;3355;52.882;8.430;2023-08-20T07:47:49;6.50;;;5.80;;
6638;SDS011;3355;52.882;8.430;2023-08-20T07:50:16;9.53;;;7.20;;
6638;SDS011;3355;52.882;8.430;2023-08-20T07:52:43;6.87;;;6.23;;
6638;SDS011;3355;52.882;8.430;2023-08-20T07:55:10;8.03;;;6.57;;
6638;SDS011;3355;52.882;8.430;2023-08-20T07:57:36;9.53;;;6.50;;
6638;SDS011;3355;52.882;8.430;2023-08-20T08:00:03;7.80;;;5.80;;
6638;SDS011;3355;52.882;8.430;2023-08-20T08:02:33;7.23;;;5.83;;
6638;SDS011;3355;52.882;8.430;2023-08-20T08:04:59;6.47;;;5.87;;
6638;SDS011;3355;52.882;8.430;2023-08-20T08:07:26;6.67;;;5.77;;
6638;SDS011;3355;52.882;8.430;2023-08-20T08:09:53;6.47;;;5.87;;
6638;SDS011;3355;52.882;8.430;2023-08-20T08:12:19;8.03;;;6.73;;
6638;SDS011;3355;52.882;8.430;2023-08-20T08:14:47;11.50;;;7.23;;
6638;SDS011;3355;52.882;8.430;2023-08-20T08:17:14;8.40;;;7.17;;
6638;SDS011;3355;52.882;8.430;2023-08-20T08:19:42;7.43;;;6.70;;
6638;SDS011;3355;52.882;8.430;2023-08-20T08:22:08;8.60;;;7.43;;
6638;SDS011;3355;52.882;8.430;2023-08-20T08:24:35;8.77;;;7.23;;
6638;SDS011;3355;52.882;8.430;2023-08-20T08:27:02;8.13;;;6.90;;
6638;SDS011;3355;52.882;8.430;2023-08-20T08:29:29;7.87;;;6.80;;
6638;SDS011;3355;52.882;8.430;2023-08-20T08:31:55;7.90;;;6.90;;
6638;SDS011;3355;52.882;8.430;2023-08-20T08:34:22;9.67;;;7.80;;
6638;SDS011;3355;52.882;8.430;2023-08-20T08:36:50;10.73;;;7.80;;
6638;SDS011;3355;52.882;8.430;2023-08-20T08:39:16;12.57;;;7.47;;
6638;SDS011;3355;52.882;8.430;2023-08-20T08:41:43;8.80;;;7.90;;
6638;SDS011;3355;52.882;8.430;2023-08-20T08:44:13;9.00;;;7.30;;
6638;SDS011;3355;52.882;8.430;2023-08-20T08:46:40;6.97;;;6.00;;
6638;SDS011;3355;52.882;8.430;2023-08-20T08:49:06;6.87;;;6.17;;
6638;SDS011;3355;52.882;8.430;2023-08-20T08:51:34;8.30;;;6.60;;
6638;SDS011;3355;52.882;8.430;2023-08-20T08:54:04;7.57;;;6.87;;
6638;SDS011;3355;52.882;8.430;2023-08-20T08:56:31;7.37;;;6.07;;
6638;SDS011;3355;52.882;8.430;2023-08-20T08:58:58;6.90;;;6.00;;
6638;SDS011;3355;52.882;8.430;2023-08-20T09:01:25;6.10;;;5.50;;
6638;SDS011;3355;52.882;8.430;2023-08-20T09:03:52;6.60;;;6.00;;
6638;SDS011;3355;52.882;8.430;2023-08-20T09:06:18;8.03;;;7.23;;
6638;SDS011;3355;52.882;8.430;2023-08-20T09:08:45;7.60;;;6.43;;
6638;SDS011;3355;52.882;8.430;2023-08-20T09:11:13;7.33;;;6.73;;
6638;SDS011;3355;52.882;8.430;2023-08-20T09:13:40;7.20;;;6.50;;
6638;SDS011;3355;52.882;8.430;2023-08-20T09:16:09;9.13;;;6.90;;
6638;SDS011;3355;52.882;8.430;2023-08-20T09:18:37;9.93;;;8.07;;
6638;SDS011;3355;52.882;8.430;2023-08-20T09:21:06;6.10;;;5.40;;
6638;SDS011;3355;52.882;8.430;2023-08-20T09:23:33;6.97;;;6.37;;
6638;SDS011;3355;52.882;8.430;2023-08-20T09:26:01;8.30;;;6.70;;
6638;SDS011;3355;52.882;8.430;2023-08-20T09:28:29;6.60;;;5.60;;
6638;SDS011;3355;52.882;8.430;2023-08-20T09:30:56;8.57;;;7.57;;
6638;SDS011;3355;52.882;8.430;2023-08-20T09:33:26;7.30;;;6.60;;
6638;SDS011;3355;52.882;8.430;2023-08-20T09:35:53;10.57;;;7.55;;
6638;SDS011;3355;52.882;8.430;2023-08-20T09:38:20;7.87;;;7.17;;
6638;SDS011;3355;52.882;8.430;2023-08-20T09:40:48;6.78;;;6.18;;
6638;SDS011;3355;52.882;8.430;2023-08-20T09:43:17;6.57;;;5.80;;
6638;SDS011;3355;52.882;8.430;2023-08-20T09:45:46;7.20;;;6.60;;
6638;SDS011;3355;52.882;8.430;2023-08-20T09:48:13;6.50;;;5.90;;
6638;SDS011;3355;52.882;8.430;2023-08-20T09:50:46;8.00;;;7.20;;
6638;SDS011;3355;52.882;8.430;2023-08-20T09:53:25;8.43;;;6.75;;
6638;SDS011;3355;52.882;8.430;2023-08-20T09:55:53;6.32;;;5.57;;
6638;SDS011;3355;52.882;8.430;2023-08-20T09:58:22;8.45;;;6.32;;
6638;SDS011;3355;52.882;8.430;2023-08-20T10:00:52;12.05;;;6.10;;
6638;SDS011;3355;52.882;8.430;2023-08-20T10:03:18;7.03;;;5.80;;
6638;SDS011;3355;52.882;8.430;2023-08-20T10:05:46;6.43;;;5.82;;
6638;SDS011;3355;52.882;8.430;2023-08-20T10:08:14;6.43;;;5.82;;
6638;SDS011;3355;52.882;8.430;2023-08-20T10:10:41;8.05;;;5.85;;
6638;SDS011;3355;52.882;8.430;2023-08-20T10:13:08;6.35;;;5.68;;
6638;SDS011;3355;52.882;8.430;2023-08-20T10:15:34;5.50;;;5.00;;
6638;SDS011;3355;52.882;8.430;2023-08-20T10:18:04;7.07;;;5.00;;
6638;SDS011;3355;52.882;8.430;2023-08-20T10:20:31;8.32;;;5.55;;
6638;SDS011;3355;52.882;8.430;2023-08-20T10:23:00;7.57;;;5.57;;
6638;SDS011;3355;52.882;8.430;2023-08-20T10:25:29;7.30;;;5.87;;
6638;SDS011;3355;52.882;8.430;2023-08-20T10:28:10;5.95;;;5.25;;
6638;SDS011;3355;52.882;8.430;2023-08-20T10:30:38;7.22;;;5.30;;
6638;SDS011;3355;52.882;8.430;2023-08-20T10:33:07;6.70;;;5.13;;
6638;SDS011;3355;52.882;8.430;2023-08-20T10:35:46;6.20;;;5.35;;
6638;SDS011;3355;52.882;8.430;2023-08-20T10:38:14;8.20;;;6.47;;
6638;SDS011;3355;52.882;8.430;2023-08-20T10:40:51;10.27;;;5.72;;
6638;SDS011;3355;52.882;8.430;2023-08-20T10:43:29;6.25;;;5.07;;
6638;SDS011;3355;52.882;8.430;2023-08-20T10:46:03;6.55;;;5.88;;
6638;SDS011;3355;52.882;8.430;2023-08-20T10:48:35;6.85;;;5.55;;
6638;SDS011;3355;52.882;8.430;2023-08-20T10:51:09;7.78;;;4.95;;
6638;SDS011;3355;52.882;8.430;2023-08-20T10:53:37;5.32;;;4.60;;
6638;SDS011;3355;52.882;8.430;2023-08-20T10:56:11;7.10;;;5.00;;
6638;SDS011;3355;52.882;8.430;2023-08-20T10:58:40;8.02;;;4.88;;
6638;SDS011;3355;52.882;8.430;2023-08-20T11:01:14;6.47;;;4.63;;
6638;SDS011;3355;52.882;8.430;2023-08-20T11:03:52;4.63;;;4.07;;
6638;SDS011;3355;52.882;8.430;2023-08-20T11:06:19;5.38;;;4.78;;
6638;SDS011;3355;52.882;8.430;2023-08-20T11:08:45;4.40;;;3.88;;
6638;SDS011;3355;52.882;8.430;2023-08-20T11:11:12;6.55;;;4.88;;
6638;SDS011;3355;52.882;8.430;2023-08-20T11:13:39;6.28;;;5.20;;
6638;SDS011;3355;52.882;8.430;2023-08-20T11:16:07;5.18;;;4.13;;
6638;SDS011;3355;52.882;8.430;2023-08-20T11:18:34;6.07;;;4.00;;
6638;SDS011;3355;52.882;8.430;2023-08-20T11:21:04;4.95;;;4.53;;
6638;SDS011;3355;52.882;8.430;2023-08-20T11:23:31;4.18;;;3.65;;
6638;SDS011;3355;52.882;8.430;2023-08-20T11:25:58;4.20;;;3.80;;
6638;SDS011;3355;52.882;8.430;2023-08-20T11:28:26;4.30;;;3.90;;
6638;SDS011;3355;52.882;8.430;2023-08-20T11:30:53;5.05;;;4.20;;
6638;SDS011;3355;52.882;8.430;2023-08-20T11:33:23;7.95;;;3.75;;
6638;SDS011;3355;52.882;8.430;2023-08-20T11:35:51;8.55;;;4.47;;
6638;SDS011;3355;52.882;8.430;2023-08-20T11:38:19;6.22;;;4.30;;
6638;SDS011;3355;52.882;8.430;2023-08-20T11:40:46;6.05;;;3.88;;
6638;SDS011;3355;52.882;8.430;2023-08-20T11:43:13;6.15;;;4.40;;
6638;SDS011;3355;52.882;8.430;2023-08-20T11:45:44;6.63;;;4.63;;
6638;SDS011;3355;52.882;8.430;2023-08-20T11:48:12;4.28;;;3.88;;
6638;SDS011;3355;52.882;8.430;2023-08-20T11:50:39;4.05;;;3.60;;
6638;SDS011;3355;52.882;8.430;2023-08-20T11:53:08;7.75;;;4.60;;
6638;SDS011;3355;52.882;8.430;2023-08-20T11:55:39;5.90;;;4.72;;
6638;SDS011;3355;52.882;8.430;2023-08-20T11:58:11;4.72;;;3.60;;
6638;SDS011;3355;52.882;8.430;2023-08-20T12:00:39;4.78;;;3.97;;
6638;SDS011;3355;52.882;8.430;2023-08-20T12:03:22;5.30;;;3.95;;
6638;SDS011;3355;52.882;8.430;2023-08-20T12:06:22;4.20;;;3.80;;
6638;SDS011;3355;52.882;8.430;2023-08-20T12:09:19;5.22;;;4.07;;
6638;SDS011;3355;52.882;8.430;2023-08-20T12:12:05;6.18;;;4.97;;
6638;SDS011;3355;52.882;8.430;2023-08-20T12:14:39;4.28;;;3.63;;
6638;SDS011;3355;52.882;8.430;2023-08-20T12:17:07;4.70;;;3.90;;
6638;SDS011;3355;52.882;8.430;2023-08-20T12:19:43;4.43;;;4.03;;
6638;SDS011;3355;52.882;8.430;2023-08-20T12:22:10;4.10;;;3.70;;
6638;SDS011;3355;52.882;8.430;2023-08-20T12:24:37;5.68;;;3.85;;
6638;SDS011;3355;52.882;8.430;2023-08-20T12:27:07;4.28;;;3.88;;
6638;SDS011;3355;52.882;8.430;2023-08-20T12:29:34;6.70;;;4.22;;
6638;SDS011;3355;52.882;8.430;2023-08-20T12:32:00;5.32;;;3.22;;
6638;SDS011;3355;52.882;8.430;2023-08-20T12:34:29;5.32;;;3.90;;
6638;SDS011;3355;52.882;8.430;2023-08-20T12:36:56;4.30;;;3.90;;
6638;SDS011;3355;52.882;8.430;2023-08-20T12:39:23;4.20;;;3.22;;
6638;SDS011;3355;52.882;8.430;2023-08-20T12:41:50;4.53;;;3.70;;
6638;SDS011;3355;52.882;8.430;2023-08-20T12:47:01;3.92;;;2.95;;
6638;SDS011;3355;52.882;8.430;2023-08-20T12:49:28;4.50;;;3.60;;
6638;SDS011;3355;52.882;8.430;2023-08-20T12:52:11;7.20;;;3.58;;
6638;SDS011;3355;52.882;8.430;2023-08-20T12:54:40;4.18;;;3.13;;
6638;SDS011;3355;52.882;8.430;2023-08-20T12:57:08;6.97;;;3.42;;
6638;SDS011;3355;52.882;8.430;2023-08-20T12:59:36;3.92;;;3.40;;
6638;SDS011;3355;52.882;8.430;2023-08-20T13:02:03;3.72;;;3.38;;
6638;SDS011;3355;52.882;8.430;2023-08-20T13:04:30;3.78;;;3.40;;
6638;SDS011;3355;52.882;8.430;2023-08-20T13:06:57;6.78;;;3.35;;
6638;SDS011;3355;52.882;8.430;2023-08-20T13:09:24;4.60;;;3.55;;
6638;SDS011;3355;52.882;8.430;2023-08-20T13:11:51;3.58;;;2.97;;
6638;SDS011;3355;52.882;8.430;2023-08-20T13:14:20;5.20;;;3.58;;
6638;SDS011;3355;52.882;8.430;2023-08-20T13:16:49;6.82;;;3.97;;
6638;SDS011;3355;52.882;8.430;2023-08-20T13:19:16;3.72;;;3.38;;
6638;SDS011;3355;52.882;8.430;2023-08-20T13:21:43;4.57;;;3.72;;
6638;SDS011;3355;52.882;8.430;2023-08-20T13:24:10;5.45;;;3.80;;
6638;SDS011;3355;52.882;8.430;2023-08-20T13:26:36;4.03;;;3.28;;
6638;SDS011;3355;52.882;8.430;2023-08-20T13:29:03;4.88;;;3.05;;
6638;SDS011;3355;52.882;8.430;2023-08-20T13:31:30;4.65;;;3.42;;
6638;SDS011;3355;52.882;8.430;2023-08-20T13:33:58;5.22;;;3.72;;
6638;SDS011;3355;52.882;8.430;2023-08-20T13:36:24;3.80;;;3.50;;
6638;SDS011;3355;52.882;8.430;2023-08-20T13:38:51;4.05;;;3.65;;
6638;SDS011;3355;52.882;8.430;2023-08-20T13:41:17;5.60;;;3.70;;
6638;SDS011;3355;52.882;8.430;2023-08-20T13:43:44;4.07;;;3.67;;
6638;SDS011;3355;52.882;8.430;2023-08-20T13:46:11;4.50;;;3.58;;
6638;SDS011;3355;52.882;8.430;2023-08-20T13:48:38;4.50;;;3.28;;
6638;SDS011;3355;52.882;8.430;2023-08-20T13:51:06;4.50;;;3.45;;
6638;SDS011;3355;52.882;8.430;2023-08-20T13:53:32;7.07;;;3.45;;
6638;SDS011;3355;52.882;8.430;2023-08-20T13:55:59;5.38;;;3.85;;
6638;SDS011;3355;52.882;8.430;2023-08-20T13:58:26;5.78;;;3.60;;
6638;SDS011;3355;52.882;8.430;2023-08-20T14:00:52;3.50;;;3.20;;
6638;SDS011;3355;52.882;8.430;2023-08-20T14:03:19;3.80;;;3.08;;
6638;SDS011;3355;52.882;8.430;2023-08-20T14:05:45;4.28;;;3.13;;
6638;SDS011;3355;52.882;8.430;2023-08-20T14:08:14;4.00;;;3.40;;
6638;SDS011;3355;52.882;8.430;2023-08-20T14:10:40;3.50;;;3.20;;
6638;SDS011;3355;52.882;8.430;2023-08-20T14:13:07;4.38;;;3.25;;
6638;SDS011;3355;52.882;8.430;2023-08-20T14:15:33;4.80;;;2.97;;
6638;SDS011;3355;52.882;8.430;2023-08-20T14:18:01;4.85;;;3.47;;
6638;SDS011;3355;52.882;8.430;2023-08-20T14:20:28;3.80;;;3.08;;
6638;SDS011;3355;52.882;8.430;2023-08-20T14:22:55;3.65;;;3.13;;
6638;SDS011;3355;52.882;8.430;2023-08-20T14:25:23;3.72;;;2.55;;
6638;SDS011;3355;52.882;8.430;2023-08-20T14:27:49;3.65;;;3.15;;
6638;SDS011;3355;52.882;8.430;2023-08-20T14:30:17;4.57;;;3.03;;
6638;SDS011;3355;52.882;8.430;2023-08-20T14:32:43;4.55;;;3.67;;
6638;SDS011;3355;52.882;8.430;2023-08-20T14:35:10;4.13;;;3.38;;
6638;SDS011;3355;52.882;8.430;2023-08-20T14:37:37;4.45;;;2.55;;
6638;SDS011;3355;52.882;8.430;2023-08-20T14:40:04;3.30;;;2.70;;
6638;SDS011;3355;52.882;8.430;2023-08-20T14:42:33;4.25;;;3.85;;
6638;SDS011;3355;52.882;8.430;2023-08-20T14:45:00;6.22;;;5.25;;
6638;SDS011;3355;52.882;8.430;2023-08-20T14:47:28;3.35;;;3.05;;
6638;SDS011;3355;52.882;8.430;2023-08-20T14:49:55;3.33;;;2.58;;
6638;SDS011;3355;52.882;8.430;2023-08-20T14:52:22;4.95;;;2.70;;
6638;SDS011;3355;52.882;8.430;2023-08-20T14:54:48;3.78;;;3.17;;
6638;SDS011;3355;52.882;8.430;2023-08-20T14:57:15;3.70;;;3.13;;
6638;SDS011;3355;52.882;8.430;2023-08-20T14:59:44;3.55;;;2.65;;
6638;SDS011;3355;52.882;8.430;2023-08-20T15:02:10;4.97;;;3.03;;
6638;SDS011;3355;52.882;8.430;2023-08-20T15:04:38;4.03;;;2.40;;
6638;SDS011;3355;52.882;8.430;2023-08-20T15:07:04;4.95;;;2.40;;
6638;SDS011;3355;52.882;8.430;2023-08-20T15:09:31;5.45;;;2.50;;
6638;SDS011;3355;52.882;8.430;2023-08-20T15:11:58;4.47;;;2.40;;
6638;SDS011;3355;52.882;8.430;2023-08-20T15:14:24;3.45;;;1.98;;
6638;SDS011;3355;52.882;8.430;2023-08-20T15:16:52;3.65;;;2.17;;
6638;SDS011;3355;52.882;8.430;2023-08-20T15:19:19;4.45;;;2.75;;
6638;SDS011;3355;52.882;8.430;2023-08-20T15:21:46;4.05;;;2.78;;
6638;SDS011;3355;52.882;8.430;2023-08-20T15:24:12;2.55;;;1.85;;
6638;SDS011;3355;52.882;8.430;2023-08-20T15:26:39;3.42;;;1.90;;
6638;SDS011;3355;52.882;8.430;2023-08-20T15:29:05;4.35;;;2.50;;
6638;SDS011;3355;52.882;8.430;2023-08-20T15:31:32;3.03;;;1.88;;
6638;SDS011;3355;52.882;8.430;2023-08-20T15:34:01;2.65;;;2.03;;
6638;SDS011;3355;52.882;8.430;2023-08-20T15:36:28;3.55;;;2.40;;
6638;SDS011;3355;52.882;8.430;2023-08-20T15:38:54;3.30;;;2.30;;
6638;SDS011;3355;52.882;8.430;2023-08-20T15:41:21;4.25;;;2.58;;
6638;SDS011;3355;52.882;8.430;2023-08-20T15:43:48;5.17;;;1.80;;
6638;SDS011;3355;52.882;8.430;2023-08-20T15:46:14;3.75;;;1.88;;
6638;SDS011;3355;52.882;8.430;2023-08-20T15:48:41;2.60;;;1.65;;
6638;SDS011;3355;52.882;8.430;2023-08-20T15:51:09;2.60;;;1.50;;
6638;SDS011;3355;52.882;8.430;2023-08-20T15:53:36;2.83;;;1.50;;
6638;SDS011;3355;52.882;8.430;2023-08-20T15:56:03;2.57;;;1.50;;
6638;SDS011;3355;52.882;8.430;2023-08-20T15:58:30;4.60;;;1.70;;
6638;SDS011;3355;52.882;8.430;2023-08-20T16:00:56;2.63;;;1.87;;
6638;SDS011;3355;52.882;8.430;2023-08-20T16:03:23;4.40;;;3.53;;
6638;SDS011;3355;52.882;8.430;2023-08-20T16:05:50;3.60;;;2.38;;
6638;SDS011;3355;52.882;8.430;2023-08-20T16:08:18;2.93;;;1.70;;
6638;SDS011;3355;52.882;8.430;2023-08-20T16:10:45;2.90;;;1.27;;
6638;SDS011;3355;52.882;8.430;2023-08-20T16:13:12;2.90;;;1.60;;
6638;SDS011;3355;52.882;8.430;2023-08-20T16:15:38;3.67;;;2.20;;
6638;SDS011;3355;52.882;8.430;2023-08-20T16:18:05;3.00;;;2.03;;
6638;SDS011;3355;52.882;8.430;2023-08-20T16:20:32;3.03;;;1.40;;
6638;SDS011;3355;52.882;8.430;2023-08-20T16:23:01;2.67;;;1.10;;
6638;SDS011;3355;52.882;8.430;2023-08-20T16:25:29;3.60;;;1.60;;
6638;SDS011;3355;52.882;8.430;2023-08-20T16:28:00;2.80;;;1.67;;
6638;SDS011;3355;52.882;8.430;2023-08-20T16:30:27;2.30;;;1.30;;
6638;SDS011;3355;52.882;8.430;2023-08-20T16:32:53;2.67;;;1.20;;
6638;SDS011;3355;52.882;8.430;2023-08-20T16:35:20;2.53;;;1.20;;
6638;SDS011;3355;52.882;8.430;2023-08-20T16:37:48;2.10;;;1.50;;
6638;SDS011;3355;52.882;8.430;2023-08-20T16:40:21;2.30;;;0.90;;
6638;SDS011;3355;52.882;8.430;2023-08-20T16:42:49;2.60;;;1.03;;
6638;SDS011;3355;52.882;8.430;2023-08-20T16:45:16;2.37;;;1.30;;
6638;SDS011;3355;52.882;8.430;2023-08-20T16:47:43;2.23;;;1.40;;
6638;SDS011;3355;52.882;8.430;2023-08-20T16:50:10;2.67;;;1.10;;
6638;SDS011;3355;52.882;8.430;2023-08-20T16:52:36;1.83;;;1.30;;
6638;SDS011;3355;52.882;8.430;2023-08-20T16:55:03;3.53;;;0.90;;
6638;SDS011;3355;52.882;8.430;2023-08-20T16:57:30;2.40;;;1.10;;
6638;SDS011;3355;52.882;8.430;2023-08-20T16:59:59;1.80;;;1.10;;
6638;SDS011;3355;52.882;8.430;2023-08-20T17:02:25;2.37;;;1.00;;
6638;SDS011;3355;52.882;8.430;2023-08-20T17:04:52;2.10;;;1.40;;
6638;SDS011;3355;52.882;8.430;2023-08-20T17:07:20;2.53;;;1.20;;
6638;SDS011;3355;52.882;8.430;2023-08-20T17:09:46;2.03;;;1.20;;
6638;SDS011;3355;52.882;8.430;2023-08-20T17:12:13;2.33;;;1.20;;
6638;SDS011;3355;52.882;8.430;2023-08-20T17:14:39;2.40;;;1.10;;
6638;SDS011;3355;52.882;8.430;2023-08-20T17:17:07;2.80;;;1.10;;
6638;SDS011;3355;52.882;8.430;2023-08-20T17:19:34;3.13;;;1.17;;
6638;SDS011;3355;52.882;8.430;2023-08-20T17:22:00;2.83;;;1.00;;